Time;durP1;ratioP1;P1;durP2;ratioP2;P2;SDS_P1;SDS_P2;PMS_P1;PMS_P2;Temp;Humidity;BMP_temperature;BMP_pressure;BME280_temperature;BME280_humidity;BME280_pressure;Samples;Min_cycle;Max_cycle;Signal;HPM_P1;HPM_P2
2021/04/22 00:00:20;;;;;;;21.52;12.37;;;;;;;10.77;60.49;100137.05;1703202;83;27539;-75
2021/04/22 00:02:49;;;;;;;20.45;12.98;;;;;;;10.70;60.65;100142.37;1651116;83;25486;-75
2021/04/22 00:05:25;;;;;;;19.12;13.35;;;;;;;10.65;61.28;100138.12;1660614;83;25753;-75
2021/04/22 00:07:53;;;;;;;19.90;14.35;;;;;;;10.61;61.75;100138.70;1683599;83;25884;-75
2021/04/22 00:10:26;;;;;;;23.90;13.58;;;;;;;10.57;61.49;100140.97;1706608;83;25768;-75
2021/04/22 00:12:54;;;;;;;22.87;14.40;;;;;;;10.54;61.65;100141.89;1695206;83;27775;-75
2021/04/22 00:15:22;;;;;;;24.47;14.70;;;;;;;10.52;61.68;100151.44;1687276;83;25726;-75
2021/04/22 00:17:53;;;;;;;19.82;12.75;;;;;;;10.52;61.95;100142.59;1681625;83;26476;-75
2021/04/22 00:20:22;;;;;;;19.23;12.68;;;;;;;10.50;62.24;100145.98;1705181;83;25798;-75
2021/04/22 00:22:49;;;;;;;17.75;13.10;;;;;;;10.41;62.53;100143.97;1659879;83;26217;-75
2021/04/22 00:25:17;;;;;;;21.57;13.45;;;;;;;10.36;62.40;100149.08;1694535;83;27534;-75
2021/04/22 00:27:45;;;;;;;18.80;12.80;;;;;;;10.30;62.51;100147.19;1696607;83;25876;-75
2021/04/22 00:30:16;;;;;;;16.55;12.90;;;;;;;10.23;62.82;100146.81;1714969;83;26500;-75
2021/04/22 00:32:44;;;;;;;17.48;12.43;;;;;;;10.17;63.14;100140.91;1713973;83;26423;-74
2021/04/22 00:35:12;;;;;;;18.07;12.03;;;;;;;10.11;62.80;100141.70;1670584;83;25789;-75
2021/04/22 00:37:40;;;;;;;17.25;11.68;;;;;;;10.05;62.79;100140.07;1681126;83;28388;-75
2021/04/22 00:40:12;;;;;;;16.00;11.25;;;;;;;9.97;62.84;100140.22;1704505;83;25812;-76
2021/04/22 00:42:40;;;;;;;18.67;11.63;;;;;;;9.91;62.68;100143.67;1686057;83;25910;-74
2021/04/22 00:45:09;;;;;;;16.20;10.25;;;;;;;9.85;62.71;100143.62;1684116;83;26048;-74
2021/04/22 00:47:38;;;;;;;15.28;11.03;;;;;;;9.81;62.88;100146.36;1675411;83;25842;-75
2021/04/22 00:50:11;;;;;;;18.98;12.03;;;;;;;9.76;62.68;100143.43;1660238;83;28277;-75
2021/04/22 00:52:39;;;;;;;17.55;12.47;;;;;;;9.73;62.84;100147.31;1710234;82;25898;-75
2021/04/22 00:55:08;;;;;;;21.50;11.68;;;;;;;9.69;63.03;100153.23;1701849;82;25919;-75
2021/04/22 00:57:36;;;;;;;14.18;9.88;;;;;;;9.64;62.93;100151.16;1707572;82;25872;-75
2021/04/22 01:00:08;;;;;;;19.32;11.60;;;;;;;9.60;63.09;100155.73;1736512;82;26083;-75
2021/04/22 01:02:38;;;;;;;12.50;10.13;;;;;;;9.54;63.17;100154.64;1720839;82;27532;-75
2021/04/22 01:05:10;;;;;;;15.48;10.93;;;;;;;9.50;63.24;100155.20;1691092;82;25797;-75
2021/04/22 01:07:41;;;;;;;13.10;10.03;;;;;;;9.48;63.46;100158.58;1728533;82;25914;-74
2021/04/22 01:10:13;;;;;;;16.42;10.08;;;;;;;9.41;63.25;100165.19;1692582;83;25799;-75
2021/04/22 01:12:41;;;;;;;14.55;8.58;;;;;;;9.40;63.45;100164.05;1700285;83;26084;-75
2021/04/22 01:15:17;;;;;;;12.13;8.75;;;;;;;9.32;63.13;100165.82;1673142;83;27519;-75
2021/04/22 01:17:45;;;;;;;14.03;9.00;;;;;;;9.25;63.11;100168.95;1702822;83;26195;-75
2021/04/22 01:20:17;;;;;;;10.90;8.55;;;;;;;9.20;63.08;100172.69;1708856;82;25805;-76
2021/04/22 01:22:47;;;;;;;12.30;9.15;;;;;;;9.18;63.06;100181.40;1720660;82;25878;-76
2021/04/22 01:25:19;;;;;;;13.00;8.88;;;;;;;9.18;62.81;100181.90;1705918;82;25815;-75
2021/04/22 01:27:46;;;;;;;13.10;8.38;;;;;;;9.14;62.77;100189.47;1702221;82;27556;-74
2021/04/22 01:30:21;;;;;;;11.75;8.23;;;;;;;9.12;62.74;100202.20;1699122;82;25999;-75
2021/04/22 01:32:49;;;;;;;13.50;7.45;;;;;;;9.14;62.62;100210.02;1722414;82;25781;-75
2021/04/22 01:35:20;;;;;;;11.18;7.72;;;;;;;9.14;62.51;100220.70;1677908;82;25796;-74
2021/04/22 01:37:48;;;;;;;12.75;8.65;;;;;;;9.17;62.45;100229.70;1705506;82;25830;-75
2021/04/22 01:40:17;;;;;;;9.35;6.87;;;;;;;9.14;62.67;100226.88;1679263;82;28548;-75
2021/04/22 01:42:44;;;;;;;11.03;7.33;;;;;;;9.08;62.69;100226.30;1702470;82;26489;-75
2021/04/22 01:45:13;;;;;;;12.75;8.53;;;;;;;9.06;62.95;100218.14;1723178;82;25753;-74
2021/04/22 01:47:42;;;;;;;16.85;8.73;;;;;;;9.03;63.04;100226.02;1678068;82;25877;-75
2021/04/22 01:50:15;;;;;;;13.18;9.13;;;;;;;8.98;63.05;100230.27;1703839;82;25888;-74
2021/04/22 01:52:43;;;;;;;12.07;8.65;;;;;;;8.94;63.18;100230.32;1719404;82;27482;-75
2021/04/22 01:55:15;;;;;;;12.65;8.35;;;;;;;8.90;63.15;100229.84;1727110;82;25689;-75
2021/04/22 01:57:42;;;;;;;14.63;8.25;;;;;;;8.88;63.03;100229.20;1678619;82;25861;-75
2021/04/22 02:00:18;;;;;;;11.10;7.30;;;;;;;8.88;63.05;100239.05;1703803;82;26140;-75
2021/04/22 02:02:46;;;;;;;9.33;7.37;;;;;;;8.87;62.99;100247.59;1724572;82;25947;-75
2021/04/22 02:05:13;;;;;;;16.20;8.50;;;;;;;8.85;63.21;100246.11;1719907;82;27527;-74
2021/04/22 02:07:41;;;;;;;9.88;7.40;;;;;;;8.81;63.42;100248.30;1686856;82;26372;-75
2021/04/22 02:10:10;;;;;;;12.73;6.87;;;;;;;8.81;63.27;100247.50;1684073;81;26418;-76
2021/04/22 02:12:37;;;;;;;9.88;7.05;;;;;;;8.83;63.39;100244.13;1697511;82;26504;-75
2021/04/22 02:15:10;;;;;;;12.25;8.28;;;;;;;8.84;63.55;100243.10;1722524;82;26146;-75
2021/04/22 02:17:37;;;;;;;13.53;7.80;;;;;;;8.84;63.53;100233.76;1704599;83;28404;-75
2021/04/22 02:20:11;;;;;;;11.00;7.65;;;;;;;8.85;63.47;100245.61;1650948;83;25938;-75
2021/04/22 02:22:39;;;;;;;11.30;7.45;;;;;;;8.88;63.46;100242.55;1669664;83;26462;-75
2021/04/22 02:25:10;;;;;;;13.88;8.45;;;;;;;8.91;63.79;100243.53;1729437;82;26408;-75
2021/04/22 02:27:39;;;;;;;12.78;7.17;;;;;;;8.89;63.99;100248.73;1707033;82;26261;-75
2021/04/22 02:30:14;;;;;;;10.03;6.55;;;;;;;8.84;63.90;100253.28;1706109;82;27535;-75
2021/04/22 02:32:42;;;;;;;11.22;7.33;;;;;;;8.82;64.01;100241.96;1696022;82;25796;-74
2021/04/22 02:35:13;;;;;;;9.53;7.08;;;;;;;8.80;64.14;100227.97;1729295;82;25847;-74
2021/04/22 02:37:41;;;;;;;8.33;6.45;;;;;;;8.78;64.23;100212.64;1711855;82;26460;-75
2021/04/22 02:40:15;;;;;;;11.12;7.03;;;;;;;8.75;64.20;100237.52;1710986;82;26183;-75
2021/04/22 02:42:43;;;;;;;10.15;6.40;;;;;;;8.74;64.23;100242.06;1698062;82;28479;-75
2021/04/22 02:45:22;;;;;;;9.33;6.47;;;;;;;8.68;64.57;100227.27;1721393;82;25727;-75
2021/04/22 02:47:50;;;;;;;8.55;5.95;;;;;;;8.59;64.54;100202.50;1711127;82;26467;-74
2021/04/22 02:50:22;;;;;;;8.28;5.08;;;;;;;8.50;64.65;100216.45;1707520;82;25834;-75
2021/04/22 02:52:50;;;;;;;11.40;5.72;;;;;;;8.44;63.98;100215.01;1701856;82;26195;-74
2021/04/22 02:55:17;;;;;;;12.10;5.62;;;;;;;8.38;63.74;100221.08;1724316;82;27535;-75
2021/04/22 02:57:44;;;;;;;13.35;5.75;;;;;;;8.31;63.39;100233.48;1704903;82;25850;-74
2021/04/22 03:00:17;;;;;;;7.22;3.80;;;;;;;8.28;63.27;100245.34;1674289;83;26571;-74
2021/04/22 03:02:46;;;;;;;9.23;4.72;;;;;;;8.22;62.74;100243.86;1675852;83;25827;-75
2021/04/22 03:05:15;;;;;;;8.63;4.42;;;;;;;8.19;62.95;100256.25;1698654;83;26516;-75
2021/04/22 03:07:42;;;;;;;10.53;4.62;;;;;;;8.16;62.90;100261.93;1654507;83;27719;-75
2021/04/22 03:10:14;;;;;;;9.78;4.12;;;;;;;8.15;63.01;100275.77;1677669;83;25840;-73
2021/04/22 03:12:42;;;;;;;7.85;3.92;;;;;;;8.13;63.19;100286.28;1670894;83;25747;-75
2021/04/22 03:15:11;;;;;;;7.95;4.28;;;;;;;8.02;63.97;100291.53;1695091;83;25765;-75
2021/04/22 03:17:38;;;;;;;9.83;4.42;;;;;;;7.87;64.50;100306.63;1658285;83;26176;-75
2021/04/22 03:20:08;;;;;;;7.42;3.60;;;;;;;7.73;65.03;100302.91;1679465;83;27540;-76
2021/04/22 03:22:35;;;;;;;7.62;3.98;;;;;;;7.59;65.13;100292.16;1678654;83;25800;-75
2021/04/22 03:25:04;;;;;;;6.83;3.85;;;;;;;7.50;65.11;100299.87;1699210;83;25830;-75
2021/04/22 03:27:31;;;;;;;8.05;4.12;;;;;;;7.48;65.46;100312.53;1635239;83;25768;-75
2021/04/22 03:29:59;;;;;;;5.15;2.90;;;;;;;7.38;66.30;100309.23;1680925;83;26480;-75
2021/04/22 03:32:27;;;;;;;5.95;2.75;;;;;;;7.23;67.26;100318.98;1664766;83;27309;-74
2021/04/22 03:34:54;;;;;;;8.78;3.65;;;;;;;7.10;68.34;100317.35;1697629;83;26074;-75
2021/04/22 03:37:22;;;;;;;8.75;3.80;;;;;;;6.96;68.77;100330.36;1657572;83;25825;-75
2021/04/22 03:39:49;;;;;;;7.00;3.52;;;;;;;6.87;69.44;100327.88;1672277;83;25796;-74
2021/04/22 03:42:17;;;;;;;7.25;4.33;;;;;;;6.78;69.80;100315.57;1650847;83;25813;-74
2021/04/22 03:44:45;;;;;;;9.65;4.33;;;;;;;6.67;69.73;100308.77;1696969;83;26779;-75
2021/04/22 03:47:13;;;;;;;8.83;3.90;;;;;;;6.61;69.82;100308.61;1658589;83;25991;-75
2021/04/22 03:49:43;;;;;;;12.40;4.62;;;;;;;6.59;69.65;100318.59;1680087;83;26446;-74
2021/04/22 03:52:10;;;;;;;11.08;4.50;;;;;;;6.63;69.84;100311.44;1669523;83;26296;-75
2021/04/22 03:54:38;;;;;;;10.95;4.05;;;;;;;6.69;69.53;100305.44;1700231;83;25820;-75
2021/04/22 03:57:07;;;;;;;7.65;4.10;;;;;;;6.79;69.88;100312.77;1666729;83;28439;-76
2021/04/22 03:59:34;;;;;;;8.38;4.10;;;;;;;6.84;69.88;100318.39;1670779;83;25821;-75
2021/04/22 04:02:01;;;;;;;6.87;3.62;;;;;;;6.90;69.99;100326.22;1676104;84;26326;-75
2021/04/22 04:04:29;;;;;;;12.78;4.53;;;;;;;6.95;70.19;100320.70;1673776;84;26107;-75
2021/04/22 04:06:56;;;;;;;12.43;4.65;;;;;;;6.97;70.13;100333.86;1676929;85;25918;-76
2021/04/22 04:09:24;;;;;;;10.32;5.37;;;;;;;6.99;70.21;100341.18;1655369;85;27530;-75
2021/04/22 04:11:51;;;;;;;10.78;5.35;;;;;;;7.00;70.18;100338.83;1683064;83;25853;-75
2021/04/22 04:14:18;;;;;;;11.08;5.30;;;;;;;7.01;70.27;100333.33;1706115;83;25868;-75
2021/04/22 04:16:45;;;;;;;9.08;3.85;;;;;;;7.04;70.20;100328.17;1653071;83;25806;-75
2021/04/22 04:19:13;;;;;;;8.88;4.55;;;;;;;7.09;70.29;100334.31;1685556;82;26080;-75
2021/04/22 04:21:40;;;;;;;13.48;4.97;;;;;;;7.10;70.24;100338.13;1653719;85;27358;-75
2021/04/22 04:24:08;;;;;;;10.98;4.62;;;;;;;7.08;70.41;100333.48;1630846;85;26133;-75
2021/04/22 04:26:36;;;;;;;8.53;4.60;;;;;;;7.09;70.61;100326.33;1703890;83;25785;-75
2021/04/22 04:29:04;;;;;;;9.88;4.90;;;;;;;7.14;70.70;100317.34;1708226;82;26230;-75
2021/04/22 04:31:31;;;;;;;13.03;4.75;;;;;;;7.19;70.80;100317.14;1731459;82;25703;-74
2021/04/22 04:33:59;;;;;;;7.37;4.05;;;;;;;7.25;70.69;100323.62;1685071;84;27559;-76
2021/04/22 04:36:26;;;;;;;9.93;4.85;;;;;;;7.25;70.68;100331.09;1631536;85;26483;-75
2021/04/22 04:38:53;;;;;;;9.20;4.78;;;;;;;7.24;70.68;100343.27;1655023;85;25924;-74
2021/04/22 04:41:21;;;;;;;11.60;4.67;;;;;;;7.24;70.77;100348.59;1705853;83;25807;-75
2021/04/22 04:43:48;;;;;;;7.45;4.22;;;;;;;7.27;70.99;100345.07;1684137;82;25838;-75
2021/04/22 04:46:17;;;;;;;10.55;4.33;;;;;;;7.27;70.87;100346.93;1664885;84;27552;-74
2021/04/22 04:48:46;;;;;;;8.50;4.10;;;;;;;7.25;70.76;100349.74;1707964;83;25803;-75
2021/04/22 04:51:14;;;;;;;9.65;4.75;;;;;;;7.26;70.89;100355.91;1695598;84;25976;-74
2021/04/22 04:53:41;;;;;;;10.03;4.00;;;;;;;7.25;71.04;100353.73;1651753;85;26437;-74
2021/04/22 04:56:08;;;;;;;6.17;4.50;;;;;;;7.25;71.13;100354.27;1651366;84;25760;-75
2021/04/22 04:58:36;;;;;;;10.82;5.20;;;;;;;7.26;71.21;100361.23;1675470;84;28069;-74
2021/04/22 05:01:03;;;;;;;9.45;4.30;;;;;;;7.28;71.55;100365.89;1677272;84;25859;-74
2021/04/22 05:03:31;;;;;;;10.98;4.22;;;;;;;7.29;71.58;100369.70;1641354;84;25962;-74
2021/04/22 05:05:58;;;;;;;8.53;3.70;;;;;;;7.25;71.49;100372.39;1631829;84;25746;-74
2021/04/22 05:08:25;;;;;;;11.48;4.12;;;;;;;7.23;71.34;100380.25;1667610;84;25771;-74
2021/04/22 05:10:53;;;;;;;7.83;4.10;;;;;;;7.24;71.58;100381.89;1688980;84;27540;-75
2021/04/22 05:13:20;;;;;;;8.38;4.25;;;;;;;7.27;71.90;100386.37;1639983;84;25826;-75
2021/04/22 05:15:47;;;;;;;8.88;4.83;;;;;;;7.27;71.60;100390.89;1667600;84;26527;-75
2021/04/22 05:18:15;;;;;;;11.35;6.35;;;;;;;7.27;71.54;100381.03;1667269;84;25371;-75
2021/04/22 05:20:42;;;;;;;18.17;11.63;;;;;;;7.26;71.59;100375.40;1689675;84;25759;-75
2021/04/22 05:23:10;;;;;;;11.93;7.45;;;;;;;7.33;71.84;100385.71;1667824;84;27541;-75
2021/04/22 05:25:37;;;;;;;15.40;7.05;;;;;;;7.39;71.95;100389.51;1643439;84;25893;-75
2021/04/22 05:28:05;;;;;;;10.95;5.37;;;;;;;7.40;71.77;100402.65;1667135;84;26598;-75
2021/04/22 05:30:32;;;;;;;12.30;5.42;;;;;;;7.39;71.50;100401.00;1688524;84;25876;-75
2021/04/22 05:32:59;;;;;;;12.43;5.25;;;;;;;7.38;71.34;100400.66;1640452;84;25907;-75
2021/04/22 05:35:27;;;;;;;12.80;4.87;;;;;;;7.33;71.34;100404.36;1633075;84;27552;-75
2021/04/22 05:37:54;;;;;;;12.60;5.65;;;;;;;7.26;71.00;100391.88;1667563;84;25887;-75
2021/04/22 05:40:22;;;;;;;11.10;4.97;;;;;;;7.22;71.05;100395.39;1689365;83;26393;-75
2021/04/22 05:42:49;;;;;;;15.23;5.75;;;;;;;7.25;71.48;100400.36;1641792;84;25920;-75
2021/04/22 05:45:17;;;;;;;9.05;4.50;;;;;;;7.29;71.53;100396.34;1669330;85;26035;-75
2021/04/22 05:47:46;;;;;;;11.00;4.22;;;;;;;7.38;71.39;100400.66;1643191;85;27332;-76
2021/04/22 05:50:17;;;;;;;13.43;4.33;;;;;;;7.47;71.10;100398.80;1700190;83;25934;-75
2021/04/22 05:52:45;;;;;;;11.08;4.22;;;;;;;7.52;70.87;100407.97;1658554;83;25781;-75
2021/04/22 05:55:14;;;;;;;9.13;3.80;;;;;;;7.53;70.64;100399.44;1643346;85;26527;-75
2021/04/22 05:57:41;;;;;;;12.35;3.20;;;;;;;7.57;69.93;100402.93;1646435;85;25752;-74
2021/04/22 06:00:15;;;;;;;14.58;3.75;;;;;;;7.61;69.35;100396.77;1671901;85;27527;-75
2021/04/22 06:02:42;;;;;;;10.65;3.10;;;;;;;7.62;68.72;100401.92;1719666;81;25893;-75
2021/04/22 06:05:11;;;;;;;13.20;3.20;;;;;;;7.67;67.93;100403.58;1720585;82;25666;-75
2021/04/22 06:07:39;;;;;;;9.10;2.87;;;;;;;7.70;68.02;100412.55;1707858;82;25885;-75
2021/04/22 06:10:08;;;;;;;7.05;2.87;;;;;;;7.73;67.15;100409.55;1759990;80;25792;-75
2021/04/22 06:12:35;;;;;;;11.97;3.10;;;;;;;7.71;67.08;100410.72;1713165;80;27558;-75
2021/04/22 06:15:06;;;;;;;9.00;2.55;;;;;;;7.71;65.99;100414.72;1733212;80;26319;-75
2021/04/22 06:17:37;;;;;;;8.63;2.47;;;;;;;7.66;65.95;100412.56;1731831;80;26395;-76
2021/04/22 06:20:13;;;;;;;10.23;3.05;;;;;;;7.62;65.96;100412.58;1772465;80;26465;-74
2021/04/22 06:22:42;;;;;;;10.60;2.22;;;;;;;7.64;66.15;100419.91;1700590;82;25797;-76
2021/04/22 06:25:12;;;;;;;15.23;3.37;;;;;;;7.61;63.16;100421.57;1698473;82;27542;-76
2021/04/22 06:27:41;;;;;;;14.43;3.60;;;;;;;7.56;62.36;100422.61;1709137;81;25748;-76
2021/04/22 06:30:12;;;;;;;8.65;2.20;;;;;;;7.47;61.69;100422.79;1695995;82;25960;-76
2021/04/22 06:32:40;;;;;;;7.87;2.37;;;;;;;7.42;62.05;100422.48;1693748;82;26443;-76
2021/04/22 06:35:18;;;;;;;12.25;2.72;;;;;;;7.40;61.62;100416.50;1753714;80;26378;-76
2021/04/22 06:37:46;;;;;;;5.90;2.22;;;;;;;7.38;60.82;100422.47;1740331;80;28281;-76
2021/04/22 06:40:20;;;;;;;7.75;2.30;;;;;;;7.35;61.00;100427.66;1767690;80;25821;-76
2021/04/22 06:42:47;;;;;;;9.00;2.80;;;;;;;7.49;62.54;100425.62;1710524;80;25844;-76
2021/04/22 06:45:17;;;;;;;12.35;2.33;;;;;;;7.71;62.49;100432.89;1742745;80;25716;-76
2021/04/22 06:47:46;;;;;;;10.25;2.87;;;;;;;7.83;61.70;100435.18;1741298;80;26008;-76
2021/04/22 06:50:17;;;;;;;9.75;2.87;;;;;;;7.95;59.89;100443.12;1762872;80;27531;-76
2021/04/22 06:52:44;;;;;;;11.40;4.58;;;;;;;7.90;60.26;100440.13;1725069;81;35420;-76
2021/04/22 06:55:17;;;;;;;9.98;3.50;;;;;;;7.84;59.53;100437.66;1735902;80;36461;-76
2021/04/22 06:57:45;;;;;;;15.93;3.20;;;;;;;7.71;57.01;100440.88;1746563;80;25680;-76
2021/04/22 07:00:19;;;;;;;9.03;2.17;;;;;;;7.58;56.91;100444.59;1744836;80;26439;-76
2021/04/22 07:02:51;;;;;;;17.45;3.22;;;;;;;7.57;56.41;100443.44;1768360;80;27530;-76
2021/04/22 07:05:19;;;;;;;15.95;2.62;;;;;;;7.54;56.88;100439.27;1739054;80;25846;-76
2021/04/22 07:07:47;;;;;;;15.90;2.98;;;;;;;7.57;56.60;100445.58;1741423;80;25799;-75
2021/04/22 07:10:15;;;;;;;11.03;3.15;;;;;;;7.65;55.64;100442.07;1739708;80;25922;-76
2021/04/22 07:12:43;;;;;;;13.40;2.60;;;;;;;7.77;55.98;100440.69;1738232;80;25837;-77
2021/04/22 07:15:13;;;;;;;9.80;2.52;;;;;;;7.90;54.66;100448.97;1680849;82;27540;-75
2021/04/22 07:17:43;;;;;;;11.97;2.67;;;;;;;8.01;55.08;100441.08;1698069;81;25712;-76
2021/04/22 07:20:18;;;;;;;12.18;2.60;;;;;;;8.13;54.36;100442.34;1678288;83;25757;-78
2021/04/22 07:22:45;;;;;;;11.12;3.02;;;;;;;8.23;54.40;100445.12;1690879;82;26436;-76
2021/04/22 07:25:14;;;;;;;12.03;2.62;;;;;;;8.36;54.96;100455.28;1694995;82;25815;-76
2021/04/22 07:27:43;;;;;;;10.75;2.52;;;;;;;8.43;49.99;100435.70;1697753;82;27627;-75
2021/04/22 07:30:14;;;;;;;9.10;2.67;;;;;;;8.45;51.87;100464.37;1695099;82;25860;-77
2021/04/22 07:32:41;;;;;;;5.72;2.50;;;;;;;8.25;49.68;100460.52;1694801;82;25886;-75
2021/04/22 07:35:10;;;;;;;12.70;2.92;;;;;;;8.25;49.68;100460.52;1680188;82;25805;-76
2021/04/22 07:37:40;;;;;;;12.47;2.90;;;;;;;8.26;50.62;100473.33;1729869;81;26156;-76
2021/04/22 07:40:11;;;;;;;12.15;3.62;;;;;;;8.17;49.64;100475.70;1694217;83;27324;-75
2021/04/22 07:42:39;;;;;;;11.78;3.95;;;;;;;8.07;50.35;100478.56;1709932;81;26161;-75
2021/04/22 07:45:08;;;;;;;8.65;2.70;;;;;;;8.01;49.45;100477.09;1709280;82;25827;-75
2021/04/22 07:47:36;;;;;;;11.83;3.60;;;;;;;8.00;50.61;100479.45;1676988;83;26873;-75
2021/04/22 07:50:08;;;;;;;8.13;2.75;;;;;;;8.08;51.68;100488.25;1691934;82;25787;-76
2021/04/22 07:52:35;;;;;;;8.78;2.17;;;;;;;8.15;50.86;100482.52;1706451;82;27533;-76
2021/04/22 07:55:06;;;;;;;6.87;2.52;;;;;;;8.24;50.54;100492.66;1674722;82;26473;-77
2021/04/22 07:57:35;;;;;;;8.93;3.40;;;;;;;8.28;48.95;100490.84;1730479;82;25887;-76
2021/04/22 08:00:09;;;;;;;11.03;3.40;;;;;;;8.35;50.54;100490.97;1689631;82;25988;-76
2021/04/22 08:02:36;;;;;;;9.70;2.35;;;;;;;8.41;48.79;100496.94;1667466;82;25806;-76
2021/04/22 08:05:05;;;;;;;10.65;3.37;;;;;;;8.42;48.73;100494.61;1704806;82;27544;-76
2021/04/22 08:07:33;;;;;;;7.67;2.80;;;;;;;8.45;49.36;100495.08;1678439;83;25939;-76
2021/04/22 08:10:00;;;;;;;13.05;3.33;;;;;;;8.47;48.48;100488.22;1695035;82;25846;-76
2021/04/22 08:12:27;;;;;;;12.05;3.25;;;;;;;8.46;46.94;100499.92;1685006;82;26914;-76
2021/04/22 08:14:58;;;;;;;16.05;3.08;;;;;;;8.40;47.80;100502.77;1682276;83;25826;-75
2021/04/22 08:17:24;;;;;;;14.73;3.50;;;;;;;8.42;49.15;100499.45;1690773;83;27627;-75
2021/04/22 08:19:52;;;;;;;14.45;3.15;;;;;;;8.53;48.21;100514.23;1682410;83;25936;-76
2021/04/22 08:22:19;;;;;;;11.33;2.98;;;;;;;8.56;47.72;100511.20;1692668;82;25799;-75
2021/04/22 08:24:46;;;;;;;13.55;2.72;;;;;;;8.53;47.20;100504.37;1704187;82;25593;-76
2021/04/22 08:27:14;;;;;;;21.75;3.70;;;;;;;8.58;48.99;100510.52;1705402;82;25897;-76
2021/04/22 08:29:41;;;;;;;12.75;3.33;;;;;;;8.67;48.06;100510.80;1704653;82;28428;-76
2021/04/22 08:32:09;;;;;;;15.60;3.37;;;;;;;8.68;48.25;100511.15;1705830;82;25984;-76
2021/04/22 08:34:36;;;;;;;17.55;3.90;;;;;;;8.67;48.66;100520.15;1675009;84;26013;-76
2021/04/22 08:37:04;;;;;;;12.15;3.52;;;;;;;8.61;48.88;100524.02;1655936;83;26281;-76
2021/04/22 08:39:31;;;;;;;9.18;2.52;;;;;;;8.63;49.40;100515.34;1678765;83;26002;-76
2021/04/22 08:41:59;;;;;;;10.78;4.15;;;;;;;8.72;48.49;100524.97;1677136;83;27511;-76
2021/04/22 08:44:26;;;;;;;15.58;3.15;;;;;;;8.73;48.32;100515.44;1700623;82;26115;-75
2021/04/22 08:46:54;;;;;;;12.35;3.55;;;;;;;8.86;49.01;100518.35;1695266;82;25930;-76
2021/04/22 08:49:21;;;;;;;15.30;4.05;;;;;;;8.96;48.42;100514.94;1683849;83;26362;-75
2021/04/22 08:51:49;;;;;;;8.70;3.27;;;;;;;8.98;48.61;100518.25;1688194;83;26445;-76
2021/04/22 08:54:16;;;;;;;14.50;3.65;;;;;;;9.12;49.29;100517.50;1695880;82;26972;-75
2021/04/22 08:56:45;;;;;;;9.60;3.52;;;;;;;9.24;49.58;100512.04;1700957;82;25958;-75
2021/04/22 08:59:13;;;;;;;16.00;3.58;;;;;;;9.35;49.76;100508.09;1662463;83;25923;-78
2021/04/22 09:01:41;;;;;;;13.58;3.52;;;;;;;9.38;47.68;100510.42;1721963;81;26458;-77
2021/04/22 09:04:08;;;;;;;14.85;3.60;;;;;;;9.40;49.28;100503.55;1720595;81;25798;-76
2021/04/22 09:06:37;;;;;;;13.53;3.40;;;;;;;9.49;49.52;100515.84;1705436;82;28337;-76
2021/04/22 09:09:08;;;;;;;11.45;3.30;;;;;;;9.62;48.79;100514.21;1702249;82;25464;-76
2021/04/22 09:11:46;;;;;;;15.50;3.65;;;;;;;9.56;48.87;100524.80;1725793;82;25892;-76
2021/04/22 09:14:17;;;;;;;11.12;4.20;;;;;;;9.60;48.20;100515.40;1722604;82;25857;-76
2021/04/22 09:16:47;;;;;;;14.63;3.35;;;;;;;9.55;47.74;100512.43;1729518;82;25381;-76
2021/04/22 09:19:24;;;;;;;17.12;3.85;;;;;;;9.41;47.75;100523.41;1732122;82;27485;-76
2021/04/22 09:21:55;;;;;;;14.15;3.60;;;;;;;9.34;48.61;100523.30;1709276;82;25732;-76
2021/04/22 09:24:26;;;;;;;13.78;3.25;;;;;;;9.48;50.37;100512.83;1707412;82;25930;-77
2021/04/22 09:27:03;;;;;;;5.92;2.92;;;;;;;9.67;49.78;100515.81;1696583;82;25840;-76
2021/04/22 09:29:39;;;;;;;11.65;3.05;;;;;;;9.75;48.08;100525.08;1687647;83;26048;-77
2021/04/22 09:32:23;;;;;;;11.57;3.22;;;;;;;9.76;47.95;100525.92;1712556;83;27557;-77
2021/04/22 09:34:58;;;;;;;10.53;2.85;;;;;;;9.77;48.41;100519.57;1730046;82;25723;-76
2021/04/22 09:37:42;;;;;;;9.43;3.30;;;;;;;9.78;47.25;100522.55;1719783;82;26419;-77
2021/04/22 09:40:30;;;;;;;12.35;3.75;;;;;;;9.72;46.96;100523.29;1707410;82;26652;-76
2021/04/22 09:43:01;;;;;;;8.33;2.58;;;;;;;9.72;48.31;100532.16;1734886;81;26477;-77
2021/04/22 09:45:31;;;;;;;12.78;3.25;;;;;;;9.78;48.43;100520.72;1732899;81;26844;-77
2021/04/22 09:47:59;;;;;;;8.80;3.80;;;;;;;9.87;47.91;100520.12;1695733;82;25874;-77
2021/04/22 09:50:29;;;;;;;15.03;3.25;;;;;;;9.94;48.76;100519.72;1729063;82;25769;-77
2021/04/22 09:52:59;;;;;;;10.43;3.17;;;;;;;10.01;48.39;100521.95;1689385;83;25843;-76
2021/04/22 09:55:32;;;;;;;8.38;2.40;;;;;;;9.99;46.99;100517.30;1680601;82;25418;-78
2021/04/22 09:57:59;;;;;;;7.47;2.55;;;;;;;9.98;47.61;100521.84;1697141;82;27318;-77
2021/04/22 10:00:30;;;;;;;12.78;3.22;;;;;;;10.13;49.34;100517.84;1721683;82;25854;-77
2021/04/22 10:03:04;;;;;;;11.38;3.22;;;;;;;10.22;47.90;100519.92;1689405;82;26227;-77
2021/04/22 10:05:35;;;;;;;9.83;3.55;;;;;;;10.26;47.15;100515.84;1723834;82;26448;-77
2021/04/22 10:08:13;;;;;;;10.93;2.58;;;;;;;10.28;47.14;100514.65;1708765;82;25425;-77
2021/04/22 10:10:45;;;;;;;12.18;3.37;;;;;;;10.23;47.76;100519.72;1730584;82;28456;-77
2021/04/22 10:13:12;;;;;;;10.88;3.02;;;;;;;10.17;46.73;100516.45;1697802;83;26323;-77
2021/04/22 10:15:50;;;;;;;12.15;3.60;;;;;;;10.08;47.70;100511.68;1666356;83;25872;-77
2021/04/22 10:18:17;;;;;;;9.98;3.02;;;;;;;10.14;48.37;100514.14;1722356;82;26238;-77
2021/04/22 10:20:45;;;;;;;12.10;3.80;;;;;;;10.19;48.60;100507.73;1728951;82;25995;-77
2021/04/22 10:23:13;;;;;;;10.70;3.40;;;;;;;10.24;48.39;100516.05;1711833;82;28585;-77
2021/04/22 10:25:43;;;;;;;9.85;3.25;;;;;;;10.26;46.73;100509.99;1705461;81;25801;-76
2021/04/22 10:28:14;;;;;;;12.68;2.90;;;;;;;10.25;47.15;100512.33;1710208;82;26489;-75
2021/04/22 10:30:45;;;;;;;11.85;3.35;;;;;;;10.25;46.55;100503.47;1707780;82;25841;-76
2021/04/22 10:33:12;;;;;;;10.10;3.10;;;;;;;10.22;47.34;100511.39;1723160;82;25716;-78
2021/04/22 10:35:43;;;;;;;12.80;3.20;;;;;;;10.25;48.22;100493.59;1716826;82;28678;-76
2021/04/22 10:38:11;;;;;;;11.78;3.30;;;;;;;10.32;48.12;100500.38;1718731;82;25873;-76
2021/04/22 10:40:47;;;;;;;8.88;4.35;;;;;;;10.30;46.68;100496.55;1676708;83;26674;-76
2021/04/22 10:43:21;;;;;;;11.85;3.17;;;;;;;10.24;47.03;100496.47;1673229;83;26949;-76
2021/04/22 10:45:51;;;;;;;8.40;3.37;;;;;;;10.13;47.53;100496.94;1685161;83;25761;-77
2021/04/22 10:48:20;;;;;;;10.88;4.28;;;;;;;10.17;48.24;100496.88;1662960;83;28699;-76
2021/04/22 10:50:53;;;;;;;9.25;3.37;;;;;;;10.39;48.48;100495.94;1689938;83;26504;-76
2021/04/22 10:53:23;;;;;;;11.20;4.22;;;;;;;10.58;48.65;100492.66;1647893;83;25874;-77
2021/04/22 10:55:54;;;;;;;9.95;3.35;;;;;;;10.77;48.66;100494.21;1699994;82;25816;-77
2021/04/22 10:58:38;;;;;;;13.03;3.65;;;;;;;10.96;46.32;100495.92;1731480;82;30747;-75
2021/04/22 11:01:09;;;;;;;7.90;3.12;;;;;;;10.91;47.75;100488.95;1714839;82;27541;-77
2021/04/22 11:03:43;;;;;;;10.85;3.87;;;;;;;11.04;45.83;100495.28;1734008;82;25778;-77
2021/04/22 11:06:17;;;;;;;17.10;3.72;;;;;;;11.05;46.37;100495.62;1677446;82;26468;-77
2021/04/22 11:08:54;;;;;;;14.55;3.87;;;;;;;11.15;47.45;100499.30;1698803;82;26482;-77
2021/04/22 11:11:32;;;;;;;9.15;3.90;;;;;;;11.25;46.42;100499.28;1676882;83;25845;-77
2021/04/22 11:14:16;;;;;;;9.03;3.60;;;;;;;11.24;46.75;100494.96;1700037;82;27606;-77
2021/04/22 11:16:54;;;;;;;12.43;3.92;;;;;;;11.32;46.24;100507.39;1701130;82;25779;-78
2021/04/22 11:19:25;;;;;;;11.18;3.90;;;;;;;11.37;45.75;100490.21;1704470;83;25959;-77
2021/04/22 11:22:00;;;;;;;10.65;3.90;;;;;;;11.28;46.08;100499.41;1697874;82;25805;-76
2021/04/22 11:24:31;;;;;;;11.75;4.37;;;;;;;11.25;45.65;100499.28;1728924;82;26474;-76
2021/04/22 11:27:08;;;;;;;13.00;3.47;;;;;;;11.36;48.26;100493.40;1680070;83;28190;-78
2021/04/22 11:29:46;;;;;;;10.65;3.90;;;;;;;11.35;45.63;100503.83;1709210;83;25929;-78
2021/04/22 11:32:30;;;;;;;11.38;3.67;;;;;;;11.31;46.51;100506.55;1715172;82;26375;-77
2021/04/22 11:35:11;;;;;;;7.58;3.20;;;;;;;11.28;46.33;100507.45;1743680;81;26425;-77